EDT,Max TemperatureF,Mean TemperatureF,Min TemperatureF,Max Dew PointF,MeanDew PointF,Min DewpointF,Max Humidity, Mean Humidity, Min Humidity, Max Sea Level PressureIn, Mean Sea Level PressureIn, Min Sea Level PressureIn, Max VisibilityMiles, Mean VisibilityMiles, Min VisibilityMiles, Max Wind SpeedMPH, Mean Wind SpeedMPH, Max Gust SpeedMPH,PrecipitationIn, CloudCover, Events, WindDirDegrees
2013-6-1,80,68,57,66,61,55,94,73,54,29.91,29.86,29.81,10,10,7,17,6,23,0.00,0,,209
2013-6-2,73,66,57,64,61,57,100,83,73,29.82,29.77,29.71,10,10,5,18,9,30,0.04,1,,218
2013-6-3,69,62,55,63,59,55,100,91,78,29.82,29.76,29.71,10,8,2,15,7,21,0.02,3,,221
2013-6-4,64,56,48,59,45,39,100,65,40,30.02,29.85,29.75,10,10,3,23,6,30,0.00,1,,293
2013-6-5,64,54,44,46,43,37,93,65,39,30.15,30.11,30.03,10,10,10,12,6,17,0.00,0,,261
2013-6-6,64,53,42,54,47,39,94,75,48,30.22,30.19,30.15,10,10,10,10,4,,0.82,0,,123
2013-6-7,57,54,51,52,50,45,100,87,67,30.17,30.10,29.96,10,9,2,14,6,17,0.53,7,,75
2013-6-8,66,58,51,59,55,50,100,90,68,29.96,29.79,29.61,10,7,1,18,11,23,1.51,8,,15
2013-6-9,64,60,55,57,54,52,100,87,77,30.13,30.06,29.96,10,10,10,13,5,16,0.00,5,,126
2013-6-10,64,58,51,55,52,48,100,81,59,30.22,30.15,30.06,10,10,10,10,4,,0.00,0,,201
2013-6-11,55,53,51,54,52,52,100,98,94,30.06,29.78,29.50,10,6,2,22,9,31,1.29,7,,73
2013-6-12,59,55,51,57,54,50,100,92,82,29.71,29.57,29.48,10,8,1,9,5,20,0.10,8,,358
2013-6-13,64,58,53,54,51,48,94,78,59,29.78,29.75,29.72,10,10,5,9,5,16,0.04,2,,255
2013-6-14,60,56,53,54,51,46,100,84,59,29.74,29.69,29.67,10,10,5,8,3,,0.00,2,,144
2013-6-15,75,62,50,52,46,39,100,59,29,29.88,29.81,29.72,10,10,7,17,7,25,0.00,0,,279
2013-6-16,73,60,48,57,52,46,100,77,49,29.89,29.82,29.72,10,10,10,12,6,,0.00,2,,216
2013-6-17,73,62,51,63,57,50,100,85,57,29.85,29.78,29.71,10,9,2,14,5,20,0.25,2,Thunderstorm,234
2013-6-18,64,60,55,57,55,52,100,83,64,29.96,29.91,29.83,10,10,9,12,4,,0.00,5,,239
2013-6-19,69,58,48,55,49,43,100,68,38,30.12,29.98,29.91,10,10,9,10,4,17,0.00,2,,7
2013-6-20,69,56,44,55,50,43,94,73,49,30.24,30.20,30.12,10,10,10,13,5,,0.00,0,,195
2013-6-21,73,62,51,61,54,48,100,77,46,30.22,30.19,30.16,10,10,7,13,3,16,0.00,0,,232
2013-6-22,73,64,55,63,58,54,94,86,69,30.19,30.16,30.11,10,10,10,9,3,,0.00,1,,182
2013-6-23,71,64,57,64,60,57,100,90,73,30.15,30.06,29.94,10,9,5,10,3,,0.01,2,,177
2013-6-24,87,76,64,72,67,63,100,77,52,29.94,29.86,29.79,10,10,3,18,7,23,0.00,1,,259
2013-6-25,84,74,64,68,66,63,100,74,48,29.83,29.77,29.70,10,10,5,17,6,22,0.71,1,Thunderstorm,218
2013-6-26,75,65,55,72,62,55,100,94,83,29.88,29.77,29.68,10,7,0,15,5,22,0.14,6,,61
2013-6-27,57,55,53,57,54,52,100,96,88,29.90,29.87,29.85,10,4,1,15,8,20,0.07,8,,75
2013-6-28,60,58,55,61,57,54,100,98,94,29.87,29.67,29.58,10,4,0,18,11,26,0.60,8,,84
2013-6-29,66,62,59,66,61,59,100,98,94,29.70,29.61,29.57,10,2,0,12,5,21,0.02,8,,191
2013-6-30,71,66,62,68,65,61,100,95,88,29.94,29.82,29.71,10,6,0,13,8,17,0.00,6,,211